Time;durP1;ratioP1;P1;durP2;ratioP2;P2;SDS_P1;SDS_P2;PMS_P1;PMS_P2;Temp;Humidity;BMP_temperature;BMP_pressure;BME280_temperature;BME280_humidity;BME280_pressure;Samples;Min_cycle;Max_cycle;Signal;HPM_P1;HPM_P2
2021/11/21 00:02:04;;;;;;;0.70;0.40;;;11.40;62.90;;;;;;4924024;29;20179;-87
2021/11/21 00:04:31;;;;;;;1.17;0.40;;;11.40;63.00;;;;;;4911382;29;20028;-85
2021/11/21 00:06:57;;;;;;;0.32;0.30;;;11.40;63.10;;;;;;4940767;29;20531;-85
2021/11/21 00:09:23;;;;;;;0.32;0.20;;;11.40;63.20;;;;;;4941054;29;20030;-86
2021/11/21 00:11:49;;;;;;;0.38;0.30;;;11.40;63.20;;;;;;4940114;29;20039;-86
2021/11/21 00:14:15;;;;;;;0.60;0.30;;;11.40;63.20;;;;;;4923325;29;20039;-85
2021/11/21 00:16:41;;;;;;;0.40;0.25;;;11.40;63.30;;;;;;4941730;29;20046;-86
2021/11/21 00:19:08;;;;;;;1.00;0.20;;;11.40;63.20;;;;;;4910924;29;20040;-87
2021/11/21 00:21:34;;;;;;;0.63;0.40;;;11.40;63.20;;;;;;4907689;29;20043;-87
2021/11/21 00:24:00;;;;;;;0.50;0.28;;;11.40;63.20;;;;;;4905124;29;20032;-87
2021/11/21 00:26:26;;;;;;;1.73;0.20;;;11.30;63.20;;;;;;4922291;29;20040;-88
2021/11/21 00:28:53;;;;;;;1.20;0.20;;;11.40;63.50;;;;;;4922938;29;20160;-86
2021/11/21 00:31:19;;;;;;;0.50;0.30;;;11.30;63.40;;;;;;4929235;29;20062;-86
2021/11/21 00:33:45;;;;;;;0.40;0.30;;;11.40;63.60;;;;;;4936165;29;21265;-87
2021/11/21 00:36:11;;;;;;;0.75;0.30;;;11.40;63.60;;;;;;4921667;29;20114;-86
2021/11/21 00:38:38;;;;;;;0.60;0.30;;;11.40;63.30;;;;;;4910057;29;20031;-88
2021/11/21 00:41:04;;;;;;;0.50;0.40;;;11.40;63.20;;;;;;4923119;29;20154;-88
2021/11/21 00:43:32;;;;;;;0.30;0.20;;;11.40;63.50;;;;;;4940045;29;20066;-88
2021/11/21 00:46:01;;;;;;;0.55;0.20;;;11.40;63.90;;;;;;4938816;29;20032;-90
2021/11/21 00:48:28;;;;;;;0.30;0.30;;;11.40;64.70;;;;;;4911885;29;20149;-86
2021/11/21 00:50:58;;;;;;;0.30;0.28;;;11.40;64.00;;;;;;4927523;29;20046;-85
2021/11/21 00:53:28;;;;;;;0.30;0.30;;;11.30;63.80;;;;;;4927712;29;20040;-87
2021/11/21 00:56:08;;;;;;;0.20;0.10;;;11.40;63.70;;;;;;4945467;29;20032;-85
2021/11/21 00:58:35;;;;;;;0.82;0.20;;;11.40;63.50;;;;;;4947569;29;20564;-89
2021/11/21 01:01:04;;;;;;;0.30;0.10;;;11.40;63.50;;;;;;4947810;29;20043;-85
2021/11/21 01:03:30;;;;;;;1.40;0.40;;;11.40;63.80;;;;;;4934134;29;20050;-86
2021/11/21 01:05:58;;;;;;;0.65;0.20;;;11.40;63.60;;;;;;4914763;29;20027;-85
2021/11/21 01:08:24;;;;;;;0.45;0.20;;;11.40;63.60;;;;;;4929599;29;20035;-87
2021/11/21 01:10:58;;;;;;;0.30;0.20;;;11.30;63.60;;;;;;4916914;29;20070;-87
2021/11/21 01:13:25;;;;;;;0.30;0.30;;;11.30;63.60;;;;;;4907105;29;20039;-88
2021/11/21 01:15:52;;;;;;;0.80;0.30;;;11.40;63.50;;;;;;4915836;29;20054;-87
2021/11/21 01:18:18;;;;;;;1.15;0.47;;;11.30;63.40;;;;;;4941083;29;20540;-87
2021/11/21 01:20:47;;;;;;;0.75;0.63;;;11.30;63.40;;;;;;4923245;29;20400;-87
2021/11/21 01:23:15;;;;;;;0.40;0.40;;;11.30;63.30;;;;;;4944180;29;20039;-86
2021/11/21 01:25:45;;;;;;;0.43;0.35;;;11.30;63.40;;;;;;4943321;29;20034;-87
2021/11/21 01:28:13;;;;;;;0.20;0.20;;;11.30;63.40;;;;;;4942840;29;20411;-87
2021/11/21 01:30:40;;;;;;;0.60;0.35;;;11.30;63.20;;;;;;4943884;29;20109;-86
2021/11/21 01:33:07;;;;;;;0.30;0.30;;;11.30;63.00;;;;;;4944479;29;20035;-85
2021/11/21 01:35:34;;;;;;;0.75;0.30;;;11.30;63.10;;;;;;4928328;29;20521;-86
2021/11/21 01:38:02;;;;;;;0.65;0.30;;;11.30;63.10;;;;;;4917131;29;20141;-87
2021/11/21 01:40:28;;;;;;;0.30;0.30;;;11.30;63.00;;;;;;4924204;29;20208;-88
2021/11/21 01:42:55;;;;;;;0.40;0.30;;;11.30;63.00;;;;;;4924751;29;20379;-85
2021/11/21 01:45:21;;;;;;;1.50;0.50;;;11.30;62.80;;;;;;4926014;29;20041;-88
2021/11/21 01:47:48;;;;;;;0.88;0.50;;;11.30;62.80;;;;;;4925075;29;20036;-87
2021/11/21 01:50:23;;;;;;;1.20;0.30;;;11.30;62.90;;;;;;4909048;29;20079;-86
2021/11/21 01:52:49;;;;;;;0.30;0.30;;;11.30;62.90;;;;;;4940457;29;20031;-89
2021/11/21 01:55:15;;;;;;;0.28;0.28;;;11.20;62.90;;;;;;4941645;29;20075;-88
2021/11/21 01:57:41;;;;;;;0.77;0.40;;;11.20;62.90;;;;;;4925556;29;20070;-87
2021/11/21 02:00:10;;;;;;;0.55;0.20;;;11.20;62.90;;;;;;4924984;29;20067;-88
2021/11/21 02:02:40;;;;;;;0.32;0.25;;;11.20;63.10;;;;;;4925500;29;20043;-87
2021/11/21 02:05:06;;;;;;;0.25;0.25;;;11.20;62.90;;;;;;4922900;29;20126;-86
2021/11/21 02:07:33;;;;;;;0.28;0.28;;;11.20;63.00;;;;;;4941346;29;20036;-84
2021/11/21 02:09:59;;;;;;;1.05;0.45;;;11.20;62.90;;;;;;4943471;29;20067;-85
2021/11/21 02:12:25;;;;;;;0.22;0.22;;;11.20;62.90;;;;;;4925290;29;20379;-85
2021/11/21 02:14:51;;;;;;;0.93;0.20;;;11.20;63.40;;;;;;4943087;29;20034;-86
2021/11/21 02:17:17;;;;;;;0.30;0.30;;;11.20;63.80;;;;;;4926588;29;20040;-85
2021/11/21 02:19:43;;;;;;;0.50;0.20;;;11.10;63.90;;;;;;4941901;29;20521;-86
2021/11/21 02:22:09;;;;;;;0.20;0.20;;;11.20;64.30;;;;;;4923998;29;20103;-85
2021/11/21 02:24:35;;;;;;;1.20;0.25;;;11.20;64.50;;;;;;4942330;29;20475;-87
2021/11/21 02:27:02;;;;;;;0.25;0.10;;;11.20;64.40;;;;;;4942311;29;20123;-86
2021/11/21 02:29:28;;;;;;;0.32;0.30;;;11.20;64.10;;;;;;4946400;29;20717;-87
2021/11/21 02:31:54;;;;;;;1.30;0.32;;;11.20;63.80;;;;;;4929482;29;20059;-85
2021/11/21 02:34:20;;;;;;;0.20;0.10;;;11.20;63.60;;;;;;4946674;29;20039;-85
2021/11/21 02:36:46;;;;;;;0.47;0.20;;;11.20;63.40;;;;;;4916334;29;20063;-86
2021/11/21 02:39:15;;;;;;;0.20;0.20;;;11.20;63.30;;;;;;4945773;29;20200;-87
2021/11/21 02:41:41;;;;;;;1.27;0.20;;;11.20;63.20;;;;;;4913082;29;20037;-87
2021/11/21 02:44:07;;;;;;;0.38;0.30;;;11.20;63.10;;;;;;4928350;29;20059;-87
2021/11/21 02:46:34;;;;;;;0.28;0.20;;;11.10;63.00;;;;;;4926866;29;20043;-86
2021/11/21 02:49:00;;;;;;;1.90;0.30;;;11.10;62.90;;;;;;4928070;29;20057;-86
2021/11/21 02:51:27;;;;;;;0.40;0.32;;;11.10;62.90;;;;;;4913619;29;20040;-87
2021/11/21 02:53:53;;;;;;;0.10;0.10;;;11.10;62.90;;;;;;4945757;29;20036;-85
2021/11/21 02:56:20;;;;;;;0.90;0.20;;;11.10;63.30;;;;;;4945722;29;20126;-87
2021/11/21 02:58:47;;;;;;;0.70;0.40;;;11.10;62.90;;;;;;4928018;29;20044;-87
2021/11/21 03:01:25;;;;;;;0.10;0.10;;;11.10;63.00;;;;;;4911396;29;20466;-85
2021/11/21 03:03:52;;;;;;;0.80;0.10;;;11.10;63.10;;;;;;4945334;29;20126;-88
2021/11/21 03:06:18;;;;;;;0.65;0.30;;;11.00;63.00;;;;;;4945330;29;20537;-87
2021/11/21 03:08:44;;;;;;;0.30;0.20;;;11.10;63.10;;;;;;4913637;29;20070;-87
2021/11/21 03:11:28;;;;;;;0.32;0.20;;;11.00;62.90;;;;;;4928097;29;20114;-87
2021/11/21 03:13:55;;;;;;;0.43;0.30;;;11.00;62.90;;;;;;4944164;29;20066;-87
2021/11/21 03:16:21;;;;;;;1.38;0.15;;;11.00;62.90;;;;;;4902735;29;20031;-85
2021/11/21 03:18:46;;;;;;;0.40;0.20;;;11.00;62.90;;;;;;4928062;29;20106;-88
2021/11/21 03:21:12;;;;;;;0.73;0.28;;;11.00;62.80;;;;;;4927744;29;20046;-86
2021/11/21 03:23:40;;;;;;;0.55;0.25;;;11.00;62.80;;;;;;4927144;29;20039;-87
2021/11/21 03:26:06;;;;;;;0.73;0.22;;;11.00;62.70;;;;;;4942861;29;20467;-86
2021/11/21 03:28:32;;;;;;;0.40;0.20;;;11.00;62.70;;;;;;4948334;29;20149;-87
2021/11/21 03:30:58;;;;;;;0.20;0.10;;;11.00;62.80;;;;;;4918120;29;20055;-85
2021/11/21 03:33:24;;;;;;;0.20;0.20;;;11.00;62.80;;;;;;4944275;29;20042;-87
2021/11/21 03:35:50;;;;;;;0.68;0.20;;;11.00;62.80;;;;;;4943860;29;20031;-86
2021/11/21 03:38:16;;;;;;;1.08;0.20;;;11.00;62.90;;;;;;4943546;29;20080;-85
2021/11/21 03:40:42;;;;;;;0.30;0.20;;;11.00;62.90;;;;;;4941143;28;20039;-86
2021/11/21 03:43:08;;;;;;;0.45;0.20;;;11.00;62.90;;;;;;4943702;29;20043;-86
2021/11/21 03:45:34;;;;;;;0.10;0.10;;;10.90;62.80;;;;;;4925803;29;20127;-87
2021/11/21 03:48:00;;;;;;;0.68;0.25;;;11.00;62.80;;;;;;4926501;29;20031;-85
2021/11/21 03:50:26;;;;;;;0.85;0.20;;;11.00;62.70;;;;;;4941097;29;20040;-87
2021/11/21 03:52:52;;;;;;;0.20;0.10;;;11.00;62.70;;;;;;4925697;29;20233;-85
2021/11/21 03:55:19;;;;;;;0.20;0.10;;;10.90;62.60;;;;;;4943431;29;20039;-87
2021/11/21 03:57:46;;;;;;;0.88;0.20;;;10.90;62.70;;;;;;4930112;29;20039;-93
2021/11/21 04:00:24;;;;;;;0.28;0.10;;;10.90;62.50;;;;;;4909306;29;20054;-94
2021/11/21 04:02:51;;;;;;;0.20;0.17;;;10.90;62.60;;;;;;4929731;29;20034;-94
2021/11/21 04:05:19;;;;;;;0.70;0.20;;;11.00;62.50;;;;;;4922785;29;20122;-93
2021/11/21 04:07:46;;;;;;;0.90;0.28;;;11.00;62.60;;;;;;4926810;29;20078;-93
2021/11/21 04:10:13;;;;;;;0.30;0.20;;;10.90;62.60;;;;;;4922405;29;20034;-95
2021/11/21 04:12:39;;;;;;;0.52;0.20;;;11.00;62.60;;;;;;4930637;29;20035;-96
2021/11/21 04:15:07;;;;;;;0.20;0.20;;;11.00;62.70;;;;;;4925018;29;20086;-92
2021/11/21 04:17:33;;;;;;;0.45;0.20;;;10.90;62.60;;;;;;4914228;29;20039;-93
2021/11/21 04:20:00;;;;;;;0.90;0.30;;;11.00;62.70;;;;;;4921242;29;20363;-96
2021/11/21 04:22:26;;;;;;;0.20;0.20;;;10.90;62.70;;;;;;4920623;29;20040;-96
2021/11/21 04:24:57;;;;;;;0.57;0.40;;;11.00;62.70;;;;;;4922945;29;20548;-96
2021/11/21 04:27:27;;;;;;;0.38;0.38;;;10.90;62.70;;;;;;4931615;29;20030;-95
2021/11/21 04:29:54;;;;;;;0.65;0.40;;;11.00;62.80;;;;;;4914380;29;21512;-96
2021/11/21 04:32:21;;;;;;;0.80;0.20;;;10.90;62.80;;;;;;4914468;29;20079;-96
2021/11/21 04:34:47;;;;;;;0.73;0.30;;;10.90;62.80;;;;;;4914379;29;20043;-95
2021/11/21 04:37:13;;;;;;;1.45;0.50;;;10.90;63.00;;;;;;4912622;29;20075;-95
2021/11/21 04:39:39;;;;;;;0.50;0.30;;;10.90;63.10;;;;;;4906391;29;20042;-95
2021/11/21 04:42:05;;;;;;;0.68;0.50;;;10.90;63.00;;;;;;4931936;28;20015;-93
2021/11/21 04:44:31;;;;;;;0.93;0.40;;;10.90;63.10;;;;;;4931920;29;20035;-96
2021/11/21 04:46:58;;;;;;;0.30;0.25;;;10.90;63.10;;;;;;4922784;29;20047;-95
2021/11/21 04:49:25;;;;;;;0.95;0.40;;;10.90;63.00;;;;;;4931592;29;20553;-95
2021/11/21 04:51:51;;;;;;;0.93;0.50;;;10.90;63.10;;;;;;4916766;29;20050;-95
2021/11/21 04:54:21;;;;;;;0.40;0.40;;;10.90;63.10;;;;;;4912998;29;20043;-95
2021/11/21 04:59:30;;;;;;;1.63;0.50;;;10.90;63.10;;;;;;5401741;23;20048;-95
2021/11/21 05:01:57;;;;;;;2.38;0.43;;;10.90;63.10;;;;;;4930055;29;20044;-92
2021/11/21 05:04:26;;;;;;;1.23;0.40;;;10.90;63.10;;;;;;4896706;29;20036;-95
2021/11/21 05:06:53;;;;;;;0.60;0.40;;;10.90;63.10;;;;;;4912858;29;20036;-91
2021/11/21 05:09:19;;;;;;;0.68;0.43;;;10.80;63.10;;;;;;4898798;29;20032;-92
2021/11/21 05:11:45;;;;;;;0.60;0.40;;;10.90;63.20;;;;;;4913049;29;20087;-90
2021/11/21 05:14:15;;;;;;;0.77;0.50;;;10.80;63.20;;;;;;4894701;29;20044;-89
2021/11/21 05:16:41;;;;;;;0.47;0.40;;;10.80;63.30;;;;;;4893349;29;20032;-86
2021/11/21 05:19:07;;;;;;;0.93;0.50;;;10.80;63.30;;;;;;4880145;29;20460;-90
2021/11/21 05:21:32;;;;;;;1.88;0.50;;;10.80;63.30;;;;;;4879722;29;20942;-88
2021/11/21 05:24:00;;;;;;;1.38;0.43;;;10.80;63.70;;;;;;4912014;29;20040;-91
2021/11/21 05:26:27;;;;;;;1.05;0.52;;;10.80;63.40;;;;;;4912173;29;20043;-90
2021/11/21 05:28:54;;;;;;;1.02;0.70;;;10.80;63.30;;;;;;4911394;29;20040;-87
2021/11/21 05:31:20;;;;;;;0.80;0.40;;;10.80;63.30;;;;;;4893885;29;20040;-87
2021/11/21 05:33:47;;;;;;;0.85;0.30;;;10.80;63.30;;;;;;4911253;29;20036;-88
2021/11/21 05:36:13;;;;;;;1.42;0.38;;;10.80;63.20;;;;;;4908502;29;20044;-86
2021/11/21 05:38:39;;;;;;;1.95;0.50;;;10.80;63.20;;;;;;4913270;29;20039;-94
2021/11/21 05:41:05;;;;;;;0.65;0.40;;;10.80;63.20;;;;;;4912488;29;20562;-91
2021/11/21 05:43:31;;;;;;;1.73;0.50;;;10.80;63.00;;;;;;4897533;29;20028;-89
2021/11/21 05:45:57;;;;;;;1.88;0.80;;;10.80;63.10;;;;;;4895822;29;20056;-87
2021/11/21 05:48:23;;;;;;;2.45;0.88;;;10.80;63.00;;;;;;4915122;29;20047;-96
2021/11/21 05:50:50;;;;;;;2.13;1.05;;;10.80;63.10;;;;;;4885747;29;20040;-86
2021/11/21 05:53:16;;;;;;;2.97;0.80;;;10.80;63.10;;;;;;4915529;29;20119;-89
2021/11/21 05:55:42;;;;;;;1.40;0.70;;;10.80;63.10;;;;;;4901504;29;20040;-91
2021/11/21 05:58:08;;;;;;;1.45;0.95;;;10.80;63.20;;;;;;4883746;29;20036;-88
2021/11/21 06:00:34;;;;;;;1.77;0.98;;;10.80;63.20;;;;;;4895530;29;20055;-92
2021/11/21 06:03:00;;;;;;;1.50;1.10;;;10.80;63.10;;;;;;4879818;29;20035;-93
2021/11/21 06:05:27;;;;;;;0.93;0.63;;;10.80;63.10;;;;;;4901297;29;20452;-91
2021/11/21 06:07:53;;;;;;;0.73;0.60;;;10.80;63.10;;;;;;4896529;29;20471;-90
2021/11/21 06:10:20;;;;;;;1.65;0.90;;;10.80;63.00;;;;;;4898347;29;20032;-92
2021/11/21 06:12:46;;;;;;;1.75;0.80;;;10.80;63.00;;;;;;4897292;29;20028;-93
2021/11/21 06:15:13;;;;;;;0.70;0.65;;;10.80;62.90;;;;;;4884038;29;20044;-92
2021/11/21 06:17:39;;;;;;;1.05;0.60;;;10.80;62.90;;;;;;4896547;29;20035;-93
2021/11/21 06:20:07;;;;;;;2.58;0.50;;;10.70;63.00;;;;;;4898427;29;20121;-93
2021/11/21 06:22:51;;;;;;;0.60;0.50;;;10.80;62.90;;;;;;4895548;29;20036;-85
2021/11/21 06:25:23;;;;;;;2.97;0.73;;;10.70;62.90;;;;;;4912787;29;20029;-88
2021/11/21 06:28:43;;;;;;;1.23;0.63;;;10.80;62.90;;;;;;4883362;29;20032;-93
2021/11/21 06:31:15;;;;;;;1.10;0.60;;;10.80;62.80;;;;;;4910865;29;20242;-90
2021/11/21 06:34:16;;;;;;;0.60;0.60;;;10.80;62.90;;;;;;4902229;29;20031;-93
2021/11/21 06:36:45;;;;;;;1.45;0.60;;;10.80;63.00;;;;;;4904115;29;20064;-89
2021/11/21 06:39:14;;;;;;;1.50;0.55;;;10.70;62.90;;;;;;4915721;29;20036;-85
2021/11/21 06:41:43;;;;;;;2.35;0.60;;;10.70;62.90;;;;;;4898072;29;20040;-91
2021/11/21 06:44:18;;;;;;;2.63;0.85;;;10.70;63.00;;;;;;4903414;29;20047;-94
2021/11/21 06:47:38;;;;;;;2.40;0.82;;;10.70;63.00;;;;;;4890407;29;20024;-92
2021/11/21 06:50:11;;;;;;;0.82;0.60;;;10.70;63.00;;;;;;4850827;29;20036;-92
2021/11/21 06:52:39;;;;;;;1.58;0.60;;;10.70;63.00;;;;;;4875369;29;20028;-92
2021/11/21 06:55:13;;;;;;;2.25;0.50;;;10.70;63.10;;;;;;4914807;29;20479;-94
2021/11/21 06:57:55;;;;;;;2.55;0.68;;;10.70;63.10;;;;;;4878027;29;20033;-91
2021/11/21 07:01:01;;;;;;;1.50;0.60;;;10.70;63.00;;;;;;4880049;29;20159;-93
2021/11/21 07:03:43;;;;;;;1.17;0.57;;;10.70;63.00;;;;;;4890395;29;20033;-92
2021/11/21 07:09:24;;;;;;;1.15;0.47;;;10.70;62.80;;;;;;5044141;23;20063;-92
2021/11/21 07:15:17;;;;;;;1.15;0.77;;;10.70;62.80;;;;;;4907362;29;20044;-94
2021/11/21 07:21:59;;;;;;;1.77;0.63;;;10.70;62.60;;;;;;4879377;29;20127;-92
2021/11/21 07:25:04;;;;;;;2.88;0.88;;;10.70;62.60;;;;;;4906485;29;20039;-89
2021/11/21 07:31:41;;;;;;;2.17;1.00;;;10.70;62.90;;;;;;4849882;29;20037;-88
2021/11/21 07:35:24;;;;;;;1.83;0.82;;;10.70;64.20;;;;;;4859351;29;20140;-87
2021/11/21 07:37:50;;;;;;;0.68;0.40;;;10.70;65.50;;;;;;4843016;29;20089;-90
2021/11/21 07:47:06;;;;;;;6.00;0.73;;;10.80;67.10;;;;;;4833961;29;20061;-89
2021/11/21 07:49:55;;;;;;;;;;;10.90;66.00;;;;;;4906955;29;20555;-89
2021/11/21 07:53:27;;;;;;;5.18;1.20;;;10.90;65.70;;;;;;4896231;29;19937;-92
2021/11/21 07:56:16;;;;;;;2.75;0.90;;;10.80;65.00;;;;;;4901736;29;20182;-87
2021/11/21 07:59:22;;;;;;;6.65;0.75;;;10.70;65.40;;;;;;4895515;29;20209;-90
2021/11/21 08:13:31;;;;;;;1.58;0.90;;;10.70;64.70;;;;;;4798017;29;20204;-89
2021/11/21 08:16:03;;;;;;;1.23;0.73;;;10.70;64.60;;;;;;4790685;29;20051;-88
2021/11/21 08:18:35;;;;;;;1.08;0.60;;;10.70;64.50;;;;;;4802524;29;20045;-87
2021/11/21 08:21:04;;;;;;;1.00;0.60;;;10.70;64.20;;;;;;4810726;29;20110;-89
2021/11/21 08:23:35;;;;;;;2.05;0.90;;;10.70;63.90;;;;;;4865604;29;20068;-87
2021/11/21 08:26:56;;;;;;;1.85;0.80;;;10.70;63.90;;;;;;4848046;29;20045;-90
2021/11/21 08:30:22;;;;;;;3.03;0.77;;;10.60;63.70;;;;;;4907444;29;20036;-90
2021/11/21 08:32:59;;;;;;;1.48;0.80;;;10.70;63.30;;;;;;4893448;29;20515;-86
2021/11/21 08:39:36;;;;;;;3.20;0.65;;;10.60;63.40;;;;;;4905990;29;20445;-90
2021/11/21 08:42:07;;;;;;;2.78;0.60;;;10.70;63.10;;;;;;4904964;29;20050;-89
2021/11/21 08:52:10;;;;;;;1.58;0.70;;;10.80;62.70;;;;;;4775802;29;20681;-88
2021/11/21 08:54:39;;;;;;;2.85;0.80;;;10.70;62.10;;;;;;4760492;29;20043;-88
2021/11/21 08:57:11;;;;;;;1.65;0.70;;;10.80;62.40;;;;;;4776865;29;20054;-88
2021/11/21 08:59:42;;;;;;;1.48;0.88;;;10.80;61.70;;;;;;4775490;29;20046;-88
2021/11/21 09:02:42;;;;;;;1.40;0.70;;;10.80;61.30;;;;;;4777132;29;20051;-90
2021/11/21 09:05:44;;;;;;;4.32;0.70;;;10.80;61.70;;;;;;4763904;29;20563;-91
2021/11/21 09:08:14;;;;;;;2.17;0.77;;;10.70;61.80;;;;;;4801934;29;20493;-87
2021/11/21 09:13:54;;;;;;;3.97;0.88;;;10.80;61.30;;;;;;4882342;29;20051;-88
2021/11/21 09:16:20;;;;;;;2.58;1.13;;;10.80;61.40;;;;;;4907604;29;20100;-90
2021/11/21 09:18:46;;;;;;;4.85;0.85;;;10.80;61.40;;;;;;4909609;29;20103;-93
2021/11/21 09:21:12;;;;;;;3.45;0.90;;;10.80;61.40;;;;;;4910096;29;20037;-94
2021/11/21 09:23:41;;;;;;;3.47;0.85;;;10.80;61.60;;;;;;4902982;29;20045;-91
2021/11/21 09:26:07;;;;;;;2.05;0.80;;;10.80;61.30;;;;;;4913831;29;20070;-93
2021/11/21 09:28:34;;;;;;;1.77;0.73;;;10.80;61.00;;;;;;4912430;29;20064;-93
2021/11/21 09:31:01;;;;;;;1.25;0.70;;;10.90;61.40;;;;;;4879504;29;20056;-92
2021/11/21 09:33:29;;;;;;;2.08;1.20;;;10.90;61.40;;;;;;4899368;29;20038;-91
2021/11/21 09:35:55;;;;;;;1.00;0.80;;;10.90;61.20;;;;;;4921248;29;20039;-95
2021/11/21 09:38:21;;;;;;;1.65;0.90;;;10.90;60.40;;;;;;4878509;29;20507;-94
2021/11/21 09:40:48;;;;;;;3.15;1.10;;;10.90;60.40;;;;;;4877109;29;20430;-92
2021/11/21 09:43:14;;;;;;;1.48;0.80;;;10.90;60.50;;;;;;4878434;29;20135;-90
2021/11/21 09:45:40;;;;;;;2.55;0.98;;;11.00;60.60;;;;;;4890473;29;20591;-91
2021/11/21 09:48:08;;;;;;;3.72;1.02;;;10.90;60.20;;;;;;4891214;29;20118;-92
2021/11/21 09:50:39;;;;;;;1.27;1.00;;;11.00;60.00;;;;;;4889387;29;20623;-90
2021/11/21 09:53:06;;;;;;;1.35;0.90;;;11.00;60.40;;;;;;4894094;29;20099;-94
2021/11/21 09:55:32;;;;;;;2.25;0.70;;;11.00;59.60;;;;;;4891094;29;20119;-89
2021/11/21 09:57:58;;;;;;;3.00;0.90;;;11.00;58.50;;;;;;4876108;29;20036;-93
2021/11/21 10:00:26;;;;;;;2.70;1.00;;;11.00;58.60;;;;;;4875734;29;20028;-93
2021/11/21 10:03:13;;;;;;;3.25;1.00;;;11.00;59.00;;;;;;4893176;29;20032;-93
2021/11/21 10:05:49;;;;;;;0.88;0.75;;;10.90;58.20;;;;;;4879787;29;20032;-94
2021/11/21 10:08:20;;;;;;;1.25;1.15;;;10.90;57.80;;;;;;4893429;29;20103;-94
2021/11/21 10:10:48;;;;;;;1.52;0.77;;;10.90;57.10;;;;;;4881303;29;20043;-93
2021/11/21 10:13:30;;;;;;;1.48;1.00;;;10.80;56.80;;;;;;4886510;29;20084;-93
2021/11/21 10:15:58;;;;;;;1.67;0.90;;;10.80;56.70;;;;;;4895683;29;20075;-94
2021/11/21 10:18:24;;;;;;;1.77;0.80;;;10.70;56.40;;;;;;4887381;29;20028;-95
2021/11/21 10:20:50;;;;;;;1.13;0.90;;;10.70;56.40;;;;;;4894050;29;20171;-93
2021/11/21 10:23:19;;;;;;;1.02;0.98;;;10.70;56.30;;;;;;4899874;29;20032;-93
2021/11/21 10:25:51;;;;;;;1.05;0.90;;;10.70;56.00;;;;;;4891779;29;20044;-93
2021/11/21 10:28:31;;;;;;;1.73;0.80;;;10.60;55.80;;;;;;4880015;29;20024;-93
2021/11/21 10:31:14;;;;;;;1.20;0.88;;;10.50;55.70;;;;;;4879443;29;20416;-96
2021/11/21 10:33:53;;;;;;;2.17;1.05;;;10.50;55.90;;;;;;4885130;29;20043;-95
2021/11/21 10:36:27;;;;;;;1.38;0.82;;;10.50;55.90;;;;;;4900790;29;20131;-93
2021/11/21 10:38:56;;;;;;;1.90;0.90;;;10.40;55.70;;;;;;4892635;29;20750;-93
2021/11/21 10:41:29;;;;;;;1.17;0.88;;;10.40;55.80;;;;;;4902843;29;20040;-93
2021/11/21 10:44:06;;;;;;;2.72;1.00;;;10.30;55.70;;;;;;4900442;29;20028;-94
2021/11/21 10:46:42;;;;;;;1.27;0.77;;;10.30;55.80;;;;;;4904487;29;20084;-90
2021/11/21 10:49:16;;;;;;;1.30;0.90;;;10.30;55.70;;;;;;4908136;29;20050;-94
2021/11/21 10:51:46;;;;;;;1.58;1.10;;;10.20;55.80;;;;;;4886858;29;20029;-94
2021/11/21 10:54:23;;;;;;;1.88;1.20;;;10.20;55.70;;;;;;4890475;29;20491;-92
2021/11/21 10:56:52;;;;;;;1.38;1.00;;;10.20;55.70;;;;;;4885964;29;20073;-93
2021/11/21 10:59:51;;;;;;;1.73;1.10;;;10.20;56.00;;;;;;4885611;29;20506;-95
2021/11/21 11:02:28;;;;;;;2.15;1.30;;;10.10;56.00;;;;;;4895059;29;20044;-91
2021/11/21 11:05:12;;;;;;;4.03;1.27;;;10.10;55.70;;;;;;4894760;29;20025;-93
2021/11/21 11:07:46;;;;;;;3.05;1.20;;;10.10;55.80;;;;;;4911595;29;20072;-93
2021/11/21 11:10:23;;;;;;;2.75;1.30;;;10.00;55.80;;;;;;4911500;29;20057;-93
2021/11/21 11:13:00;;;;;;;1.30;1.02;;;10.00;55.70;;;;;;4883016;29;20032;-91
2021/11/21 11:15:27;;;;;;;2.10;1.10;;;10.00;55.70;;;;;;4885916;29;20028;-93
2021/11/21 11:17:53;;;;;;;0.82;0.70;;;9.90;56.00;;;;;;4881300;29;20028;-91
2021/11/21 11:20:21;;;;;;;0.82;0.75;;;9.90;56.00;;;;;;4879516;29;20047;-92
2021/11/21 11:22:48;;;;;;;1.08;0.70;;;9.90;55.80;;;;;;4893451;29;20032;-93
2021/11/21 11:25:29;;;;;;;0.70;0.65;;;9.90;55.90;;;;;;4878737;29;20040;-92
2021/11/21 11:28:24;;;;;;;0.60;0.60;;;9.90;55.80;;;;;;4921883;29;20087;-89
2021/11/21 11:30:52;;;;;;;1.65;0.70;;;9.90;55.90;;;;;;4921538;29;20060;-86
2021/11/21 11:33:20;;;;;;;0.73;0.68;;;9.90;55.70;;;;;;4876585;29;20578;-91
2021/11/21 11:35:51;;;;;;;1.00;0.90;;;9.80;55.70;;;;;;4912133;29;20043;-93
2021/11/21 11:38:28;;;;;;;0.80;0.70;;;9.80;55.80;;;;;;4885958;29;20028;-93
2021/11/21 11:40:59;;;;;;;1.38;0.63;;;9.80;55.70;;;;;;4880027;29;20036;-89
2021/11/21 11:43:37;;;;;;;0.65;0.60;;;9.80;56.20;;;;;;4911822;29;20035;-94
2021/11/21 11:46:06;;;;;;;1.33;0.77;;;9.80;55.70;;;;;;4904206;29;20032;-93
2021/11/21 11:49:04;;;;;;;4.97;1.17;;;9.70;55.60;;;;;;4911783;29;20044;-91
2021/11/21 11:51:30;;;;;;;0.90;0.70;;;9.80;55.50;;;;;;4891171;29;20653;-92
2021/11/21 11:54:09;;;;;;;1.13;0.80;;;9.80;55.50;;;;;;4910666;29;20043;-90
2021/11/21 11:56:56;;;;;;;2.47;0.65;;;9.80;55.60;;;;;;4894564;29;20040;-90
2021/11/21 11:59:37;;;;;;;0.95;0.80;;;9.70;55.70;;;;;;4895784;29;20040;-91
2021/11/21 12:02:23;;;;;;;1.65;0.95;;;9.70;55.40;;;;;;4926115;29;20036;-90
2021/11/21 12:04:51;;;;;;;3.20;0.70;;;9.70;55.40;;;;;;4897226;29;20038;-90
2021/11/21 12:07:30;;;;;;;3.28;0.93;;;9.70;55.40;;;;;;4890905;29;20036;-94
2021/11/21 12:10:09;;;;;;;2.50;1.10;;;9.70;55.40;;;;;;4903035;29;20138;-89
2021/11/21 12:13:07;;;;;;;4.40;1.42;;;9.70;55.60;;;;;;4880852;29;20039;-90
2021/11/21 12:15:55;;;;;;;2.40;0.80;;;9.60;55.80;;;;;;4894837;29;20428;-93
2021/11/21 12:18:43;;;;;;;1.38;0.93;;;9.70;56.00;;;;;;4908663;29;20071;-93
2021/11/21 12:21:09;;;;;;;1.83;1.10;;;9.60;56.10;;;;;;4911749;29;20032;-94
2021/11/21 12:23:40;;;;;;;4.20;1.25;;;9.60;56.20;;;;;;4918132;29;20040;-90
2021/11/21 12:26:35;;;;;;;1.17;0.80;;;9.60;56.30;;;;;;4893294;29;20225;-90
2021/11/21 12:29:08;;;;;;;1.08;0.95;;;9.60;56.70;;;;;;4895742;29;20051;-92
2021/11/21 12:31:40;;;;;;;1.75;0.80;;;9.60;57.70;;;;;;4910881;29;20096;-91
2021/11/21 12:34:39;;;;;;;1.63;1.00;;;9.70;58.40;;;;;;4886651;29;20131;-88
2021/11/21 12:37:20;;;;;;;1.08;0.95;;;9.70;58.40;;;;;;4901463;29;20040;-92
2021/11/21 12:39:57;;;;;;;3.10;0.95;;;9.80;58.30;;;;;;4910902;29;20092;-96
2021/11/21 12:42:28;;;;;;;4.85;0.93;;;9.80;58.20;;;;;;4915209;29;20055;-94
2021/11/21 12:45:07;;;;;;;1.80;1.17;;;9.90;58.20;;;;;;4914688;29;20135;-95
2021/11/21 12:47:34;;;;;;;2.60;0.75;;;9.90;58.10;;;;;;4961104;23;20060;-93
2021/11/21 12:50:00;;;;;;;3.08;0.95;;;10.00;58.10;;;;;;4896828;29;20026;-92
2021/11/21 12:52:26;;;;;;;3.88;0.90;;;10.00;58.10;;;;;;4886225;29;20179;-90
2021/11/21 12:54:53;;;;;;;2.05;0.93;;;10.00;58.10;;;;;;4913257;29;20040;-90
2021/11/21 12:57:20;;;;;;;2.78;1.15;;;10.00;57.80;;;;;;4904437;29;20522;-93
2021/11/21 12:59:58;;;;;;;1.40;1.23;;;10.10;57.90;;;;;;4905875;29;20043;-95
2021/11/21 13:02:29;;;;;;;2.05;0.95;;;10.10;57.80;;;;;;4907359;29;20036;-94
2021/11/21 13:05:01;;;;;;;5.43;1.10;;;10.10;57.80;;;;;;4950214;23;20056;-92
2021/11/21 13:07:36;;;;;;;2.75;1.38;;;10.10;57.80;;;;;;4918630;29;20038;-88
2021/11/21 13:10:16;;;;;;;3.42;1.42;;;10.10;57.80;;;;;;4909629;29;20038;-91
2021/11/21 13:12:45;;;;;;;2.42;1.25;;;10.20;57.80;;;;;;4893126;29;20028;-92
2021/11/21 13:15:13;;;;;;;3.08;1.30;;;10.20;58.30;;;;;;4899087;29;20060;-93
2021/11/21 13:17:43;;;;;;;2.17;1.05;;;10.20;59.50;;;;;;4890737;29;20091;-92
2021/11/21 13:20:12;;;;;;;3.15;1.70;;;10.20;60.30;;;;;;4900359;29;20032;-92
2021/11/21 13:22:52;;;;;;;2.42;1.63;;;10.30;61.30;;;;;;4901554;29;20032;-92
2021/11/21 13:25:35;;;;;;;2.88;1.70;;;10.30;61.70;;;;;;4908403;29;20645;-92
2021/11/21 13:28:40;;;;;;;2.95;1.60;;;10.40;61.90;;;;;;4903650;29;20028;-94
2021/11/21 13:31:14;;;;;;;3.40;1.05;;;10.40;61.90;;;;;;4926769;29;20036;-94
2021/11/21 13:33:47;;;;;;;1.52;1.20;;;10.40;61.90;;;;;;4896765;29;20123;-95
2021/11/21 13:36:17;;;;;;;1.20;0.90;;;10.50;61.90;;;;;;4887405;29;20037;-93
2021/11/21 13:38:45;;;;;;;2.90;1.10;;;10.50;61.90;;;;;;4903493;29;20036;-94
2021/11/21 13:41:16;;;;;;;2.50;1.15;;;10.50;61.90;;;;;;4902486;29;20045;-94
2021/11/21 13:43:52;;;;;;;2.83;1.40;;;10.60;62.00;;;;;;4922113;29;20028;-94
2021/11/21 13:46:34;;;;;;;3.22;1.30;;;10.60;61.90;;;;;;4906869;29;20037;-94
2021/11/21 13:49:01;;;;;;;2.35;0.90;;;10.60;61.80;;;;;;4913615;29;20063;-95
2021/11/21 13:51:35;;;;;;;1.83;1.08;;;10.70;61.90;;;;;;4905087;29;20032;-93
2021/11/21 13:54:02;;;;;;;0.85;0.60;;;10.70;61.90;;;;;;4905557;29;20016;-93
2021/11/21 13:56:30;;;;;;;4.10;1.33;;;10.70;61.90;;;;;;4931677;23;20049;-94
2021/11/21 13:59:26;;;;;;;3.88;1.05;;;10.70;61.90;;;;;;4896559;29;20033;-94
2021/11/21 14:01:55;;;;;;;2.78;1.10;;;10.70;61.90;;;;;;4897107;29;20052;-92
2021/11/21 14:04:35;;;;;;;3.17;1.08;;;10.70;61.90;;;;;;4896606;29;20037;-93